Time;durP1;ratioP1;P1;durP2;ratioP2;P2;SDS_P1;SDS_P2;PMS_P1;PMS_P2;Temp;Humidity;BMP_temperature;BMP_pressure;BME280_temperature;BME280_humidity;BME280_pressure;Samples;Min_cycle;Max_cycle;Signal;HPM_P1;HPM_P2
2022/06/30 00:01:26;;;;;;;6.03;5.50;;;;;;;;;;4968750;28;20046;-71
2022/06/30 00:03:51;;;;;;;5.82;5.25;;;;;;;;;;4966579;28;20050;-70
2022/06/30 00:06:16;;;;;;;6.07;5.47;;;;;;;;;;4967092;28;20527;-70
2022/06/30 00:08:41;;;;;;;4.80;4.40;;;;;;;;;;4966747;28;20114;-69
2022/06/30 00:11:07;;;;;;;5.80;5.30;;;;;;;;;;4968892;28;20019;-67
2022/06/30 00:13:36;;;;;;;5.90;5.40;;;;;;;;;;4967136;28;20038;-69
2022/06/30 00:16:01;;;;;;;4.82;4.53;;;;;;;;;;4965230;28;20030;-69
2022/06/30 00:18:26;;;;;;;6.07;5.57;;;;;;;;;;4966592;28;20139;-70
2022/06/30 00:20:51;;;;;;;5.30;4.90;;;;;;;;;;4967990;28;20511;-69
2022/06/30 00:23:17;;;;;;;6.10;5.10;;;;;;;;;;4966313;28;20037;-70
2022/06/30 00:25:42;;;;;;;5.30;4.90;;;;;;;;;;4965938;28;20034;-69
2022/06/30 00:28:07;;;;;;;5.85;5.07;;;;;;;;;;4965205;28;20041;-71
2022/06/30 00:30:32;;;;;;;5.07;4.78;;;;;;;;;;4967798;28;20465;-70
2022/06/30 00:32:58;;;;;;;6.00;5.38;;;;;;;;;;4965561;28;20473;-69
2022/06/30 00:35:23;;;;;;;5.57;5.07;;;;;;;;;;4966638;28;20384;-69
2022/06/30 00:37:48;;;;;;;5.50;5.10;;;;;;;;;;4967650;28;20491;-70
2022/06/30 00:40:14;;;;;;;7.10;5.80;;;;;;;;;;4967090;28;20030;-69
2022/06/30 00:42:39;;;;;;;5.60;5.20;;;;;;;;;;4965047;28;20027;-69
2022/06/30 00:45:04;;;;;;;5.82;5.32;;;;;;;;;;4965983;28;20026;-69
2022/06/30 00:47:30;;;;;;;6.57;5.85;;;;;;;;;;4967587;28;20114;-69
2022/06/30 00:49:55;;;;;;;4.70;4.40;;;;;;;;;;4967789;28;20039;-69
2022/06/30 00:52:21;;;;;;;5.80;5.07;;;;;;;;;;4964985;28;20500;-68
2022/06/30 00:54:48;;;;;;;7.47;5.18;;;;;;;;;;4965412;28;20038;-71
2022/06/30 00:57:14;;;;;;;5.57;5.07;;;;;;;;;;4967576;28;20030;-70
2022/06/30 00:59:40;;;;;;;6.00;5.60;;;;;;;;;;4966121;28;20146;-70
2022/06/30 01:02:06;;;;;;;6.10;5.57;;;;;;;;;;4964221;28;20027;-71
2022/06/30 01:04:33;;;;;;;5.80;5.40;;;;;;;;;;4964527;28;20478;-70
2022/06/30 01:06:59;;;;;;;5.50;5.07;;;;;;;;;;4966886;28;20046;-70
2022/06/30 01:14:54;;;;;;;8.00;6.45;;;;;;;;;;4967331;28;20413;-70
2022/06/30 01:17:20;;;;;;;5.78;5.15;;;;;;;;;;4966880;28;20022;-71
2022/06/30 01:19:52;;;;;;;6.20;5.70;;;;;;;;;;4963843;28;20129;-70
2022/06/30 01:22:17;;;;;;;5.80;5.38;;;;;;;;;;4964188;28;20035;-69
2022/06/30 01:24:42;;;;;;;6.03;5.43;;;;;;;;;;4967287;28;20054;-72
2022/06/30 01:27:07;;;;;;;5.57;5.18;;;;;;;;;;4964025;28;20093;-72
2022/06/30 01:29:33;;;;;;;5.57;5.07;;;;;;;;;;4964852;28;20414;-70
2022/06/30 01:31:58;;;;;;;8.55;6.03;;;;;;;;;;4965124;28;20052;-70
2022/06/30 01:34:23;;;;;;;5.78;5.32;;;;;;;;;;4966628;28;20595;-69
2022/06/30 01:36:48;;;;;;;6.78;6.18;;;;;;;;;;4964732;28;20374;-68
2022/06/30 01:39:14;;;;;;;6.43;5.80;;;;;;;;;;4966070;28;20462;-69
2022/06/30 01:41:39;;;;;;;6.38;5.78;;;;;;;;;;4965473;28;20632;-71
2022/06/30 01:44:04;;;;;;;6.28;5.75;;;;;;;;;;4965237;28;20026;-70
2022/06/30 01:46:29;;;;;;;6.55;5.97;;;;;;;;;;4965418;28;20362;-69
2022/06/30 01:48:55;;;;;;;5.55;5.05;;;;;;;;;;4965513;28;20082;-69
2022/06/30 01:51:20;;;;;;;5.95;5.53;;;;;;;;;;4964973;28;20141;-69
2022/06/30 01:53:45;;;;;;;5.88;5.25;;;;;;;;;;4965076;28;20462;-69
2022/06/30 01:56:11;;;;;;;5.47;5.07;;;;;;;;;;4966865;28;20035;-69
2022/06/30 01:58:36;;;;;;;6.03;5.53;;;;;;;;;;4964796;28;20461;-70
2022/06/30 02:01:01;;;;;;;6.10;5.60;;;;;;;;;;4964835;28;20030;-69
2022/06/30 02:03:27;;;;;;;6.22;5.63;;;;;;;;;;4964781;28;20035;-68
2022/06/30 02:05:52;;;;;;;6.20;5.70;;;;;;;;;;4964911;28;20424;-72
2022/06/30 02:08:17;;;;;;;6.47;5.97;;;;;;;;;;4964741;28;20062;-70
2022/06/30 02:10:43;;;;;;;7.03;6.47;;;;;;;;;;4967235;28;20021;-70
2022/06/30 02:13:08;;;;;;;6.25;5.72;;;;;;;;;;4966239;28;20039;-71
2022/06/30 02:15:36;;;;;;;6.72;5.50;;;;;;;;;;4965867;28;20035;-68
2022/06/30 02:18:03;;;;;;;6.15;5.63;;;;;;;;;;4965089;28;20125;-70
2022/06/30 02:20:29;;;;;;;6.53;5.70;;;;;;;;;;4959718;28;20568;-70
2022/06/30 02:22:55;;;;;;;5.63;5.20;;;;;;;;;;4956119;28;20019;-69
2022/06/30 02:25:20;;;;;;;6.20;5.68;;;;;;;;;;4967648;28;20033;-69
2022/06/30 02:27:46;;;;;;;6.80;6.22;;;;;;;;;;4960731;28;20026;-70
2022/06/30 02:30:11;;;;;;;6.57;5.97;;;;;;;;;;4968867;28;20037;-70
2022/06/30 02:32:36;;;;;;;6.22;5.72;;;;;;;;;;4950497;28;20126;-69
2022/06/30 02:35:02;;;;;;;6.15;5.72;;;;;;;;;;4966288;28;20108;-69
2022/06/30 02:37:28;;;;;;;7.22;6.53;;;;;;;;;;4967159;28;20146;-70
2022/06/30 02:39:53;;;;;;;6.93;6.32;;;;;;;;;;4968495;28;20041;-70
2022/06/30 02:42:19;;;;;;;6.60;6.00;;;;;;;;;;4970768;28;20031;-69
2022/06/30 02:44:44;;;;;;;6.35;5.78;;;;;;;;;;4968111;28;20026;-70
2022/06/30 02:47:09;;;;;;;8.93;6.72;;;;;;;;;;4967741;28;20034;-69
2022/06/30 02:49:37;;;;;;;7.15;6.50;;;;;;;;;;4969715;28;20445;-69
2022/06/30 02:52:02;;;;;;;5.93;5.53;;;;;;;;;;4969999;28;20042;-69
2022/06/30 02:54:27;;;;;;;6.78;6.18;;;;;;;;;;4966348;28;20435;-70
2022/06/30 02:56:53;;;;;;;6.60;6.10;;;;;;;;;;4966873;28;20049;-71
2022/06/30 02:59:18;;;;;;;7.22;6.57;;;;;;;;;;4969269;28;20029;-70
2022/06/30 03:01:43;;;;;;;6.07;5.53;;;;;;;;;;4968817;28;20039;-70
2022/06/30 03:04:08;;;;;;;6.78;6.18;;;;;;;;;;4967684;28;20035;-70
2022/06/30 03:06:34;;;;;;;6.40;5.40;;;;;;;;;;4967810;28;20037;-70
2022/06/30 03:09:00;;;;;;;6.63;6.05;;;;;;;;;;4966217;28;20196;-70
2022/06/30 03:11:25;;;;;;;5.80;5.25;;;;;;;;;;4968293;28;20033;-70
2022/06/30 03:13:50;;;;;;;7.53;6.53;;;;;;;;;;4965097;28;20027;-70
2022/06/30 03:16:17;;;;;;;6.68;6.07;;;;;;;;;;4954567;28;20069;-71
2022/06/30 03:18:42;;;;;;;6.60;6.10;;;;;;;;;;4992828;28;20054;-71
2022/06/30 03:21:07;;;;;;;6.50;6.03;;;;;;;;;;4987545;28;20383;-69
2022/06/30 03:23:33;;;;;;;6.68;6.18;;;;;;;;;;4986494;28;20476;-67
2022/06/30 03:25:58;;;;;;;6.70;6.10;;;;;;;;;;4988286;28;20026;-66
2022/06/30 03:28:23;;;;;;;7.90;6.47;;;;;;;;;;4989874;28;20047;-68
2022/06/30 03:30:48;;;;;;;7.22;6.63;;;;;;;;;;4986030;28;20072;-67
2022/06/30 03:33:14;;;;;;;7.30;6.80;;;;;;;;;;4986985;28;20041;-68
2022/06/30 03:35:39;;;;;;;7.97;7.18;;;;;;;;;;4990917;28;20101;-67
2022/06/30 03:38:06;;;;;;;8.52;7.78;;;;;;;;;;4984953;28;20455;-69
2022/06/30 03:40:31;;;;;;;7.95;7.15;;;;;;;;;;4985063;28;20042;-69
2022/06/30 03:42:57;;;;;;;8.45;7.25;;;;;;;;;;4984989;28;20423;-69
2022/06/30 03:45:22;;;;;;;7.50;6.90;;;;;;;;;;4988515;28;20026;-70
2022/06/30 03:47:47;;;;;;;7.22;6.60;;;;;;;;;;4968697;28;20095;-75
2022/06/30 03:50:12;;;;;;;7.18;6.68;;;;;;;;;;4986073;28;20072;-70
2022/06/30 03:52:37;;;;;;;6.68;6.07;;;;;;;;;;4986039;28;20068;-70
2022/06/30 03:55:03;;;;;;;7.50;6.80;;;;;;;;;;4987660;28;20439;-70
2022/06/30 03:57:28;;;;;;;6.07;5.53;;;;;;;;;;4988639;28;20069;-68
2022/06/30 03:59:53;;;;;;;7.60;6.90;;;;;;;;;;4985542;28;20043;-70
2022/06/30 04:02:19;;;;;;;7.72;7.10;;;;;;;;;;4985916;28;20030;-67
2022/06/30 04:04:44;;;;;;;8.50;7.60;;;;;;;;;;4987287;28;20034;-68
2022/06/30 04:07:09;;;;;;;9.65;8.60;;;;;;;;;;4985416;28;20149;-67
2022/06/30 04:09:34;;;;;;;9.18;8.20;;;;;;;;;;4986506;28;20599;-65
2022/06/30 04:12:00;;;;;;;8.52;7.72;;;;;;;;;;4985264;28;20030;-67
2022/06/30 04:14:25;;;;;;;9.85;8.50;;;;;;;;;;4986265;28;20169;-68
2022/06/30 04:16:50;;;;;;;8.80;7.80;;;;;;;;;;4986896;28;20033;-68
2022/06/30 04:19:15;;;;;;;8.40;7.70;;;;;;;;;;4986191;28;20039;-68
2022/06/30 04:21:41;;;;;;;9.32;8.43;;;;;;;;;;4984347;28;20030;-68
2022/06/30 04:24:06;;;;;;;7.82;7.20;;;;;;;;;;4985069;28;20500;-68
2022/06/30 04:26:31;;;;;;;9.07;8.18;;;;;;;;;;4968985;28;20510;-71
2022/06/30 04:28:56;;;;;;;7.88;7.10;;;;;;;;;;4983896;28;20256;-69
2022/06/30 04:34:05;;;;;;;9.82;8.90;;;;;;;;;;4983629;28;20033;-67
2022/06/30 04:36:31;;;;;;;10.60;8.48;;;;;;;;;;4984342;28;20026;-70
2022/06/30 04:38:56;;;;;;;7.97;7.35;;;;;;;;;;4987476;28;20034;-62
2022/06/30 04:41:24;;;;;;;8.57;7.75;;;;;;;;;;4986546;28;20384;-67
2022/06/30 04:43:50;;;;;;;9.43;7.32;;;;;;;;;;4990094;28;20026;-69
2022/06/30 04:46:15;;;;;;;8.50;7.57;;;;;;;;;;4986548;28;20032;-65
2022/06/30 04:48:41;;;;;;;7.60;6.47;;;;;;;;;;4984944;28;20050;-63
2022/06/30 04:51:07;;;;;;;8.68;6.38;;;;;;;;;;4987370;28;20034;-69
2022/06/30 04:53:33;;;;;;;9.20;7.00;;;;;;;;;;4988336;28;20030;-68
2022/06/30 04:55:58;;;;;;;9.05;7.47;;;;;;;;;;4984914;28;20041;-64
2022/06/30 04:58:23;;;;;;;10.35;7.05;;;;;;;;;;4984484;28;20042;-62
2022/06/30 05:00:48;;;;;;;7.43;6.68;;;;;;;;;;4985583;28;20441;-61
2022/06/30 05:03:14;;;;;;;7.68;6.90;;;;;;;;;;4987754;28;20037;-62
2022/06/30 05:05:39;;;;;;;8.90;6.82;;;;;;;;;;4984516;28;20033;-62
2022/06/30 05:08:05;;;;;;;10.88;6.63;;;;;;;;;;4985914;28;20070;-61
2022/06/30 05:10:30;;;;;;;7.32;6.72;;;;;;;;;;4987555;28;20077;-62
2022/06/30 05:12:55;;;;;;;8.55;7.05;;;;;;;;;;4987074;28;20499;-62
2022/06/30 05:15:21;;;;;;;8.30;6.20;;;;;;;;;;4984556;28;20129;-62
2022/06/30 05:17:46;;;;;;;7.38;6.72;;;;;;;;;;4985183;28;20037;-62
2022/06/30 05:20:11;;;;;;;7.15;6.50;;;;;;;;;;4984542;28;20026;-62
2022/06/30 05:22:37;;;;;;;7.65;6.85;;;;;;;;;;4984664;28;20445;-62
2022/06/30 05:27:46;;;;;;;8.27;7.53;;;;;;;;;;4986825;28;20068;-62
2022/06/30 05:30:12;;;;;;;6.90;6.20;;;;;;;;;;4985812;28;20204;-62
2022/06/30 05:32:37;;;;;;;8.20;6.68;;;;;;;;;;4984567;28;20033;-62
2022/06/30 05:35:03;;;;;;;8.40;7.32;;;;;;;;;;4985554;28;20041;-61
2022/06/30 05:37:28;;;;;;;10.40;7.25;;;;;;;;;;4986375;28;20042;-62
2022/06/30 05:39:53;;;;;;;7.05;6.43;;;;;;;;;;5001780;28;20121;-62
2022/06/30 05:42:19;;;;;;;9.27;7.63;;;;;;;;;;4985934;28;20125;-62
2022/06/30 05:44:45;;;;;;;8.43;7.15;;;;;;;;;;4985071;28;20481;-62
2022/06/30 05:47:11;;;;;;;7.78;7.07;;;;;;;;;;4987168;28;20049;-62
2022/06/30 05:49:37;;;;;;;7.43;6.10;;;;;;;;;;4986754;28;20050;-62
2022/06/30 05:52:02;;;;;;;7.13;6.40;;;;;;;;;;4986963;28;20027;-61
2022/06/30 05:54:28;;;;;;;9.77;6.45;;;;;;;;;;4985085;28;20049;-62
2022/06/30 05:56:53;;;;;;;8.57;6.25;;;;;;;;;;4986732;28;20042;-61
2022/06/30 05:59:18;;;;;;;9.05;6.70;;;;;;;;;;4987902;28;20026;-62
2022/06/30 06:01:43;;;;;;;6.57;5.95;;;;;;;;;;4989844;28;20092;-62
2022/06/30 06:04:09;;;;;;;6.45;5.95;;;;;;;;;;4989764;28;20108;-62
2022/06/30 06:06:34;;;;;;;6.28;5.63;;;;;;;;;;4992390;28;20167;-62
2022/06/30 06:08:59;;;;;;;8.48;6.20;;;;;;;;;;4991546;28;20245;-63
2022/06/30 06:11:25;;;;;;;7.03;6.43;;;;;;;;;;4990782;28;20336;-62
2022/06/30 06:13:50;;;;;;;7.03;6.38;;;;;;;;;;4989063;28;20033;-62
2022/06/30 06:16:15;;;;;;;7.22;6.70;;;;;;;;;;4989628;28;20057;-62
2022/06/30 06:18:41;;;;;;;7.43;6.28;;;;;;;;;;4972264;28;20035;-62
2022/06/30 06:21:06;;;;;;;7.70;5.80;;;;;;;;;;4988321;28;20062;-62
2022/06/30 06:23:31;;;;;;;6.95;5.97;;;;;;;;;;4988452;28;20030;-62
2022/06/30 06:25:57;;;;;;;6.93;6.30;;;;;;;;;;4991299;28;20148;-62
2022/06/30 06:31:07;;;;;;;9.63;5.40;;;;;;;;;;4987368;28;20042;-62
2022/06/30 06:33:33;;;;;;;6.78;6.15;;;;;;;;;;4990616;28;20469;-62
2022/06/30 06:35:58;;;;;;;6.13;5.22;;;;;;;;;;4990078;28;20030;-62
2022/06/30 06:38:23;;;;;;;6.45;5.95;;;;;;;;;;4986637;28;20038;-62
2022/06/30 06:40:48;;;;;;;6.85;6.05;;;;;;;;;;4988229;28;20081;-62
2022/06/30 06:43:14;;;;;;;6.10;5.63;;;;;;;;;;4989909;28;20449;-62
2022/06/30 06:45:39;;;;;;;6.22;5.68;;;;;;;;;;4990981;28;20117;-62
2022/06/30 06:48:04;;;;;;;7.95;6.10;;;;;;;;;;4986818;28;20046;-63
2022/06/30 06:50:30;;;;;;;6.78;6.13;;;;;;;;;;4989582;28;20113;-62
2022/06/30 06:52:55;;;;;;;6.63;6.03;;;;;;;;;;4990669;28;20149;-62
2022/06/30 06:55:20;;;;;;;7.43;6.05;;;;;;;;;;4989432;28;20431;-62
2022/06/30 06:57:46;;;;;;;6.25;5.72;;;;;;;;;;4988068;28;20076;-62
2022/06/30 07:00:12;;;;;;;6.53;5.95;;;;;;;;;;4989203;28;20034;-62
2022/06/30 07:02:38;;;;;;;6.00;5.50;;;;;;;;;;4989034;28;20114;-62
2022/06/30 07:05:03;;;;;;;5.35;4.90;;;;;;;;;;4989562;28;20053;-62
2022/06/30 07:07:28;;;;;;;6.30;5.80;;;;;;;;;;4982094;28;20040;-62
2022/06/30 07:09:54;;;;;;;5.53;5.03;;;;;;;;;;4989111;28;20068;-62
2022/06/30 07:12:19;;;;;;;6.53;6.10;;;;;;;;;;4989430;28;20113;-62
2022/06/30 07:14:44;;;;;;;6.30;5.80;;;;;;;;;;4988312;28;20065;-62
2022/06/30 07:17:09;;;;;;;6.70;6.10;;;;;;;;;;4987760;28;20041;-62
2022/06/30 07:19:35;;;;;;;6.78;6.28;;;;;;;;;;4988370;28;20494;-62
2022/06/30 07:22:00;;;;;;;5.97;5.50;;;;;;;;;;4991407;28;20053;-63
2022/06/30 07:24:25;;;;;;;5.97;5.47;;;;;;;;;;4987405;28;20029;-63
2022/06/30 07:26:50;;;;;;;5.82;5.10;;;;;;;;;;4988248;28;20456;-62
2022/06/30 07:29:16;;;;;;;5.32;4.93;;;;;;;;;;5001415;28;20030;-65
2022/06/30 07:31:41;;;;;;;6.20;5.30;;;;;;;;;;4987124;28;20479;-62
2022/06/30 07:34:07;;;;;;;5.95;5.60;;;;;;;;;;4988623;28;20041;-62
2022/06/30 07:36:32;;;;;;;5.78;5.40;;;;;;;;;;4987016;28;20026;-62
2022/06/30 07:38:57;;;;;;;6.30;5.80;;;;;;;;;;4988136;28;20781;-62
2022/06/30 07:41:24;;;;;;;6.07;5.40;;;;;;;;;;4987120;28;20442;-62
2022/06/30 07:43:50;;;;;;;6.03;5.63;;;;;;;;;;4986445;28;20213;-62
2022/06/30 07:46:15;;;;;;;5.68;5.10;;;;;;;;;;4987305;28;20030;-62
2022/06/30 07:48:41;;;;;;;6.03;5.45;;;;;;;;;;4987226;28;20077;-62
2022/06/30 07:51:06;;;;;;;6.03;5.43;;;;;;;;;;4985653;28;20141;-62
2022/06/30 07:53:32;;;;;;;6.13;5.50;;;;;;;;;;4988719;28;20551;-63
2022/06/30 07:55:57;;;;;;;5.95;5.25;;;;;;;;;;4987029;28;20052;-62
2022/06/30 07:58:22;;;;;;;6.38;5.80;;;;;;;;;;4986659;28;20042;-62
2022/06/30 08:00:48;;;;;;;6.18;5.68;;;;;;;;;;4984651;28;20455;-62
2022/06/30 08:03:13;;;;;;;6.53;5.93;;;;;;;;;;4986994;28;20038;-62
2022/06/30 08:05:38;;;;;;;16.83;13.25;;;;;;;;;;4987046;28;20483;-61
2022/06/30 08:08:04;;;;;;;62.33;45.58;;;;;;;;;;4987463;28;20267;-61
2022/06/30 08:10:29;;;;;;;6.45;5.82;;;;;;;;;;4987570;28;20037;-61
2022/06/30 08:12:54;;;;;;;5.65;4.95;;;;;;;;;;4986944;28;20030;-61
2022/06/30 08:15:19;;;;;;;5.88;5.38;;;;;;;;;;4985861;28;20037;-62
2022/06/30 08:17:45;;;;;;;5.05;4.65;;;;;;;;;;4987151;28;20196;-62
2022/06/30 08:20:10;;;;;;;5.45;5.15;;;;;;;;;;4987663;28;20538;-62
2022/06/30 08:22:35;;;;;;;5.70;5.28;;;;;;;;;;4987699;28;20033;-61
2022/06/30 08:25:01;;;;;;;5.68;5.35;;;;;;;;;;4988103;28;20308;-61
2022/06/30 08:27:26;;;;;;;5.55;4.97;;;;;;;;;;4986637;28;20034;-61
2022/06/30 08:29:51;;;;;;;5.80;5.40;;;;;;;;;;4986696;28;20560;-62
2022/06/30 08:32:17;;;;;;;5.03;4.68;;;;;;;;;;4988158;28;20460;-62
2022/06/30 08:34:42;;;;;;;5.18;4.85;;;;;;;;;;4987110;28;20034;-62
2022/06/30 08:37:08;;;;;;;5.15;4.75;;;;;;;;;;4987545;28;20532;-61
2022/06/30 08:42:19;;;;;;;5.53;5.13;;;;;;;;;;4987215;28;20089;-62
2022/06/30 08:45:13;;;;;;;5.53;5.13;;;;;;;;;;4985401;28;20034;-62
2022/06/30 08:47:30;;;;;;;6.50;5.97;;;;;;;;;;4985679;28;20480;-62
2022/06/30 08:49:55;;;;;;;7.00;5.47;;;;;;;;;;4987942;28;20033;-61
2022/06/30 08:52:21;;;;;;;6.75;6.20;;;;;;;;;;4987369;28;20033;-62
2022/06/30 08:54:49;;;;;;;4.95;4.55;;;;;;;;;;4983711;28;20034;-62
2022/06/30 08:57:15;;;;;;;4.88;4.50;;;;;;;;;;4985346;28;20077;-61
2022/06/30 08:59:41;;;;;;;5.30;5.00;;;;;;;;;;4987343;28;20074;-62
2022/06/30 09:02:07;;;;;;;6.15;5.53;;;;;;;;;;4987376;28;20465;-62
2022/06/30 09:04:32;;;;;;;5.43;5.10;;;;;;;;;;4985657;28;20073;-61
2022/06/30 09:06:58;;;;;;;5.13;4.82;;;;;;;;;;4985224;28;20057;-62
2022/06/30 09:09:23;;;;;;;5.78;5.38;;;;;;;;;;4989127;28;20066;-62
2022/06/30 09:11:56;;;;;;;5.53;5.13;;;;;;;;;;4986921;28;20029;-62
2022/06/30 09:14:33;;;;;;;7.22;5.60;;;;;;;;;;4985738;28;20113;-61
2022/06/30 09:16:59;;;;;;;5.68;5.00;;;;;;;;;;4986286;28;20931;-62
2022/06/30 09:19:25;;;;;;;6.15;5.75;;;;;;;;;;4986749;28;20034;-61
2022/06/30 09:22:07;;;;;;;6.05;5.40;;;;;;;;;;4986289;28;20128;-61
2022/06/30 09:24:33;;;;;;;6.38;5.82;;;;;;;;;;4986606;28;20038;-62
2022/06/30 09:27:11;;;;;;;6.50;5.93;;;;;;;;;;4986059;28;20095;-61
2022/06/30 09:29:52;;;;;;;5.28;4.78;;;;;;;;;;5001793;28;20407;-62
2022/06/30 09:32:17;;;;;;;6.25;5.78;;;;;;;;;;4985369;28;20033;-62
2022/06/30 09:34:43;;;;;;;6.88;6.32;;;;;;;;;;4989116;28;20034;-62
2022/06/30 09:37:15;;;;;;;6.03;5.63;;;;;;;;;;4992661;28;20030;-62
2022/06/30 09:39:42;;;;;;;6.75;6.10;;;;;;;;;;4990970;28;20077;-62
2022/06/30 09:42:07;;;;;;;5.97;5.43;;;;;;;;;;4989118;28;20369;-61
2022/06/30 09:44:34;;;;;;;6.20;5.70;;;;;;;;;;4990074;28;20045;-62
2022/06/30 09:47:02;;;;;;;9.33;5.53;;;;;;;;;;4989806;28;20385;-62
2022/06/30 09:49:32;;;;;;;6.05;5.65;;;;;;;;;;4992123;28;20092;-62
2022/06/30 09:51:57;;;;;;;6.32;5.70;;;;;;;;;;4989021;28;20030;-62
2022/06/30 09:54:22;;;;;;;6.22;5.68;;;;;;;;;;4988114;28;20139;-62
2022/06/30 09:57:04;;;;;;;6.03;5.72;;;;;;;;;;4990457;28;20049;-62
2022/06/30 09:59:29;;;;;;;6.88;5.82;;;;;;;;;;4987797;28;20030;-64
2022/06/30 10:01:55;;;;;;;6.78;6.15;;;;;;;;;;4988243;28;20060;-62
2022/06/30 10:04:20;;;;;;;7.70;5.18;;;;;;;;;;4988568;28;20037;-61
2022/06/30 10:06:46;;;;;;;6.38;5.78;;;;;;;;;;4986466;28;20034;-61
2022/06/30 10:09:14;;;;;;;7.03;6.43;;;;;;;;;;4988442;28;20520;-65
2022/06/30 10:11:39;;;;;;;6.55;6.13;;;;;;;;;;4990372;28;20041;-62
2022/06/30 10:14:04;;;;;;;7.30;6.60;;;;;;;;;;4988635;28;20026;-62
2022/06/30 10:16:30;;;;;;;5.50;5.20;;;;;;;;;;4988739;28;20034;-61
2022/06/30 10:18:56;;;;;;;6.30;5.90;;;;;;;;;;4988872;28;20038;-61
2022/06/30 10:21:21;;;;;;;7.05;6.10;;;;;;;;;;4985554;28;20489;-61
2022/06/30 10:23:47;;;;;;;8.30;6.88;;;;;;;;;;4990267;28;20065;-61
2022/06/30 10:27:12;;;;;;;6.78;6.25;;;;;;;;;;4988973;28;20409;-63
2022/06/30 10:28:57;;;;;;;8.68;6.18;;;;;;;;;;4988421;28;20401;-64
2022/06/30 10:31:26;;;;;;;6.63;6.05;;;;;;;;;;4986702;28;20247;-63
2022/06/30 10:34:10;;;;;;;6.35;5.88;;;;;;;;;;4989063;28;20030;-62
2022/06/30 10:36:42;;;;;;;6.63;6.10;;;;;;;;;;4989132;28;20391;-62
2022/06/30 10:39:18;;;;;;;7.22;6.55;;;;;;;;;;4986946;28;20030;-61
2022/06/30 10:41:44;;;;;;;7.82;7.22;;;;;;;;;;4989168;28;20092;-61
2022/06/30 10:44:12;;;;;;;7.63;6.95;;;;;;;;;;4988919;28;20092;-61
2022/06/30 10:46:55;;;;;;;6.97;6.38;;;;;;;;;;4989713;28;20478;-61
2022/06/30 10:49:22;;;;;;;7.50;6.90;;;;;;;;;;4987684;28;20145;-61
2022/06/30 10:51:47;;;;;;;6.55;6.00;;;;;;;;;;4989153;28;20152;-61
2022/06/30 10:54:26;;;;;;;7.38;6.72;;;;;;;;;;4989976;28;20030;-61
2022/06/30 10:56:52;;;;;;;7.53;6.82;;;;;;;;;;4989162;28;20539;-61
2022/06/30 10:59:25;;;;;;;7.87;7.07;;;;;;;;;;4988160;28;20034;-61
2022/06/30 11:02:12;;;;;;;6.95;6.13;;;;;;;;;;4988285;28;20698;-62
2022/06/30 11:04:38;;;;;;;7.90;7.13;;;;;;;;;;4990133;28;20579;-62
2022/06/30 11:07:13;;;;;;;7.35;6.63;;;;;;;;;;4987773;28;20084;-61
2022/06/30 11:09:57;;;;;;;6.28;5.88;;;;;;;;;;4987532;28;20050;-61
2022/06/30 11:12:42;;;;;;;7.57;6.70;;;;;;;;;;4989430;28;20094;-61
2022/06/30 11:15:08;;;;;;;7.15;6.65;;;;;;;;;;4987848;28;20042;-61
2022/06/30 11:17:39;;;;;;;7.47;6.50;;;;;;;;;;4986433;28;20036;-61
2022/06/30 11:20:04;;;;;;;7.55;6.88;;;;;;;;;;4987920;28;20037;-61
2022/06/30 11:22:30;;;;;;;7.68;7.07;;;;;;;;;;4988139;28;20333;-62
2022/06/30 11:25:01;;;;;;;7.00;6.35;;;;;;;;;;4987763;28;20153;-61
2022/06/30 11:27:28;;;;;;;7.25;6.63;;;;;;;;;;4987548;28;20030;-61
2022/06/30 11:30:02;;;;;;;7.90;7.30;;;;;;;;;;4986647;28;20092;-61
2022/06/30 11:32:27;;;;;;;7.80;7.28;;;;;;;;;;4986509;28;20445;-63
2022/06/30 11:34:53;;;;;;;7.20;6.65;;;;;;;;;;4986417;28;20144;-62
2022/06/30 11:37:25;;;;;;;7.85;7.25;;;;;;;;;;4986041;28;20042;-63
2022/06/30 11:40:01;;;;;;;6.72;6.13;;;;;;;;;;4989274;28;20030;-61
2022/06/30 11:42:26;;;;;;;7.75;7.13;;;;;;;;;;4987027;28;20026;-61
2022/06/30 11:44:52;;;;;;;7.80;7.20;;;;;;;;;;4987662;28;20463;-61
2022/06/30 11:47:17;;;;;;;7.70;7.10;;;;;;;;;;4987666;28;20034;-61
2022/06/30 11:49:44;;;;;;;8.18;7.40;;;;;;;;;;4988770;28;20026;-61
2022/06/30 11:52:16;;;;;;;6.95;6.45;;;;;;;;;;4988261;28;20523;-61
2022/06/30 11:55:02;;;;;;;7.78;6.88;;;;;;;;;;4987769;28;20101;-61
2022/06/30 11:57:29;;;;;;;7.03;6.53;;;;;;;;;;4975108;28;20077;-62
2022/06/30 11:59:56;;;;;;;8.18;7.65;;;;;;;;;;4989477;28;20029;-62
2022/06/30 12:02:21;;;;;;;7.85;7.15;;;;;;;;;;4986200;28;20524;-61
2022/06/30 12:04:50;;;;;;;7.28;6.88;;;;;;;;;;4985924;28;20038;-62
2022/06/30 12:07:16;;;;;;;7.30;6.85;;;;;;;;;;4987339;28;20030;-62
2022/06/30 12:09:42;;;;;;;7.47;6.78;;;;;;;;;;4988792;28;20120;-62
2022/06/30 12:12:08;;;;;;;7.75;6.88;;;;;;;;;;4986750;28;20193;-61
2022/06/30 12:14:36;;;;;;;7.28;6.60;;;;;;;;;;4985977;28;20042;-62
2022/06/30 12:17:01;;;;;;;7.97;7.28;;;;;;;;;;4986829;28;20053;-62
2022/06/30 12:19:26;;;;;;;8.18;7.47;;;;;;;;;;4986447;28;20037;-63
2022/06/30 12:21:52;;;;;;;6.90;6.30;;;;;;;;;;4985237;28;20038;-62
2022/06/30 12:24:18;;;;;;;7.78;7.15;;;;;;;;;;4987938;28;20029;-62
2022/06/30 12:26:49;;;;;;;7.80;7.20;;;;;;;;;;5003316;28;20413;-62
2022/06/30 12:29:15;;;;;;;8.30;6.88;;;;;;;;;;5002477;28;20036;-63
2022/06/30 12:31:40;;;;;;;6.68;6.18;;;;;;;;;;4986196;28;20396;-62
2022/06/30 12:34:06;;;;;;;7.22;6.57;;;;;;;;;;4987969;28;20030;-62
2022/06/30 12:36:32;;;;;;;6.80;6.18;;;;;;;;;;4987910;28;20037;-64
2022/06/30 12:38:59;;;;;;;7.43;6.63;;;;;;;;;;4986617;28;20813;-62
2022/06/30 12:41:25;;;;;;;7.53;6.93;;;;;;;;;;4986909;28;20026;-62
2022/06/30 12:43:51;;;;;;;6.88;6.38;;;;;;;;;;4986128;28;20031;-62
2022/06/30 12:46:19;;;;;;;8.23;7.18;;;;;;;;;;4987419;28;20029;-62
2022/06/30 12:48:47;;;;;;;107.00;77.25;;;;;;;;;;4985599;28;20054;-63
2022/06/30 12:51:14;;;;;;;13.95;12.02;;;;;;;;;;4986484;28;20114;-62
2022/06/30 12:53:40;;;;;;;9.40;8.40;;;;;;;;;;4988908;28;20038;-62
2022/06/30 12:56:05;;;;;;;7.35;6.85;;;;;;;;;;4986267;28;20769;-62
2022/06/30 12:58:44;;;;;;;10.85;6.80;;;;;;;;;;4984836;28;20065;-62
2022/06/30 13:01:11;;;;;;;7.57;6.80;;;;;;;;;;4984663;28;20476;-63
2022/06/30 13:03:50;;;;;;;7.93;6.72;;;;;;;;;;4987977;28;20030;-62
2022/06/30 13:06:16;;;;;;;7.70;7.00;;;;;;;;;;4986712;28;20026;-62
2022/06/30 13:08:43;;;;;;;9.95;7.60;;;;;;;;;;4986108;28;20113;-62
2022/06/30 13:11:11;;;;;;;7.63;7.00;;;;;;;;;;4986092;28;20026;-62
2022/06/30 13:13:36;;;;;;;8.13;7.38;;;;;;;;;;4985949;28;20044;-62
2022/06/30 13:16:02;;;;;;;18.30;7.82;;;;;;;;;;5001376;28;20030;-62
2022/06/30 13:18:27;;;;;;;7.75;7.20;;;;;;;;;;4985633;28;20026;-62
2022/06/30 13:20:52;;;;;;;8.32;7.63;;;;;;;;;;4985256;28;20057;-62
2022/06/30 13:23:17;;;;;;;8.52;7.55;;;;;;;;;;4987792;28;20105;-63
2022/06/30 13:25:43;;;;;;;6.50;6.00;;;;;;;;;;4987190;28;20053;-64
2022/06/30 13:28:08;;;;;;;9.40;7.55;;;;;;;;;;4986299;28;20038;-63
2022/06/30 13:30:33;;;;;;;8.50;7.72;;;;;;;;;;4985872;28;20077;-62
2022/06/30 13:32:59;;;;;;;7.93;7.35;;;;;;;;;;4987260;28;20246;-63
2022/06/30 13:35:24;;;;;;;7.07;6.47;;;;;;;;;;4985770;28;20031;-62
2022/06/30 13:37:49;;;;;;;8.07;7.38;;;;;;;;;;4985846;28;20068;-62
2022/06/30 13:40:15;;;;;;;7.90;7.22;;;;;;;;;;5001572;28;20062;-62
2022/06/30 13:42:40;;;;;;;8.18;7.40;;;;;;;;;;4985858;28;20030;-62
2022/06/30 13:45:06;;;;;;;7.45;6.88;;;;;;;;;;4984402;28;20022;-62
2022/06/30 13:47:31;;;;;;;7.45;6.80;;;;;;;;;;4984293;28;20038;-62
2022/06/30 13:49:58;;;;;;;7.80;7.13;;;;;;;;;;4986436;28;20030;-62
2022/06/30 13:52:23;;;;;;;7.70;7.10;;;;;;;;;;4988259;28;20034;-62
2022/06/30 13:54:48;;;;;;;7.97;7.22;;;;;;;;;;4985561;28;20041;-62
2022/06/30 13:57:14;;;;;;;8.82;8.13;;;;;;;;;;4985567;28;20034;-62
2022/06/30 13:59:39;;;;;;;7.53;6.82;;;;;;;;;;4986744;28;20031;-62
2022/06/30 14:02:04;;;;;;;7.35;6.85;;;;;;;;;;4986603;28;20031;-62
2022/06/30 14:04:29;;;;;;;7.60;7.00;;;;;;;;;;4985564;28;20030;-62
2022/06/30 14:06:56;;;;;;;7.78;7.18;;;;;;;;;;4985938;28;20795;-63
2022/06/30 14:09:21;;;;;;;7.05;6.45;;;;;;;;;;4985684;28;20058;-62
2022/06/30 14:11:47;;;;;;;7.57;6.88;;;;;;;;;;4986589;28;20334;-62
2022/06/30 14:14:12;;;;;;;7.80;7.20;;;;;;;;;;4986192;28;20034;-62
2022/06/30 14:16:37;;;;;;;7.82;7.03;;;;;;;;;;4984680;28;20050;-62
2022/06/30 14:19:03;;;;;;;8.07;7.28;;;;;;;;;;4986657;28;20559;-62
2022/06/30 14:21:28;;;;;;;7.88;7.15;;;;;;;;;;4977782;28;20130;-62
2022/06/30 14:23:53;;;;;;;7.78;7.07;;;;;;;;;;4988211;28;20562;-62
2022/06/30 14:26:19;;;;;;;8.05;6.90;;;;;;;;;;4988470;28;20403;-61
2022/06/30 14:28:44;;;;;;;8.25;7.47;;;;;;;;;;4990524;28;20362;-62
2022/06/30 14:31:09;;;;;;;8.65;7.10;;;;;;;;;;4988692;28;20019;-62
2022/06/30 14:33:34;;;;;;;11.88;7.28;;;;;;;;;;4986552;28;20033;-62
2022/06/30 14:35:59;;;;;;;8.30;7.57;;;;;;;;;;4990269;28;20473;-62
2022/06/30 14:38:25;;;;;;;7.72;6.97;;;;;;;;;;4991122;28;20587;-62
2022/06/30 14:40:50;;;;;;;9.27;7.25;;;;;;;;;;4988383;28;20018;-63
2022/06/30 14:43:15;;;;;;;7.72;6.60;;;;;;;;;;5002613;28;20104;-63
2022/06/30 14:45:41;;;;;;;7.93;7.13;;;;;;;;;;4988128;28;20073;-62
2022/06/30 14:48:06;;;;;;;9.77;7.00;;;;;;;;;;4989298;28;20046;-62
2022/06/30 14:50:31;;;;;;;8.00;7.22;;;;;;;;;;4988508;28;20465;-62
2022/06/30 14:52:56;;;;;;;7.88;7.20;;;;;;;;;;4987126;28;20038;-62
2022/06/30 14:55:22;;;;;;;8.05;7.25;;;;;;;;;;4988622;28;20030;-63